Time;durP1;ratioP1;P1;durP2;ratioP2;P2;SDS_P1;SDS_P2;PMS_P1;PMS_P2;Temp;Humidity;BMP_temperature;BMP_pressure;BME280_temperature;BME280_humidity;BME280_pressure;Samples;Min_cycle;Max_cycle;Signal;HPM_P1;HPM_P2
2023/10/14 00:01:46;;;;;;;1.50;0.50;;;15.00;99.90;;;;;;5100919;27;20033;-35
2023/10/14 00:04:11;;;;;;;1.20;0.43;;;15.00;99.90;;;;;;5123881;27;20713;-34
2023/10/14 00:06:41;;;;;;;2.35;0.52;;;15.10;99.90;;;;;;5114510;27;20032;-34
2023/10/14 00:09:16;;;;;;;1.42;0.50;;;15.10;99.90;;;;;;5111966;27;20027;-34
2023/10/14 00:11:51;;;;;;;0.50;0.50;;;15.10;99.90;;;;;;5118069;27;20046;-34
2023/10/14 00:14:17;;;;;;;0.98;0.40;;;15.10;99.90;;;;;;5112313;27;20543;-33
2023/10/14 00:16:51;;;;;;;2.33;0.50;;;15.20;99.90;;;;;;5123973;27;20142;-36
2023/10/14 00:19:18;;;;;;;1.35;0.47;;;15.20;99.90;;;;;;5104958;27;20054;-35
2023/10/14 00:21:46;;;;;;;1.23;0.32;;;15.20;99.90;;;;;;5131489;27;20032;-35
2023/10/14 00:24:16;;;;;;;0.82;0.30;;;15.20;99.90;;;;;;5093640;27;20023;-36
2023/10/14 00:26:47;;;;;;;2.28;0.40;;;15.20;99.90;;;;;;5137644;27;20099;-36
2023/10/14 00:31:39;;;;;;;1.67;0.50;;;15.20;99.90;;;;;;5137930;27;20288;-36
2023/10/14 00:34:04;;;;;;;1.17;0.50;;;15.20;99.90;;;;;;5085634;27;20015;-34
2023/10/14 00:36:34;;;;;;;1.45;0.38;;;15.30;99.90;;;;;;5143283;27;20771;-35
2023/10/14 00:39:12;;;;;;;0.90;0.32;;;15.30;99.90;;;;;;5081398;27;20105;-38
2023/10/14 00:41:39;;;;;;;2.20;0.50;;;15.30;99.90;;;;;;5144627;27;20026;-36
2023/10/14 00:44:04;;;;;;;2.13;0.63;;;15.30;99.90;;;;;;5121969;27;20060;-35
2023/10/14 00:46:33;;;;;;;2.45;0.75;;;15.30;99.90;;;;;;5044000;28;20120;-36
2023/10/14 00:49:05;;;;;;;2.70;1.10;;;15.30;99.90;;;;;;5071160;27;20032;-37
2023/10/14 00:51:33;;;;;;;2.57;0.60;;;15.30;99.90;;;;;;5149184;27;20114;-36
2023/10/14 00:54:02;;;;;;;2.20;0.75;;;15.30;99.90;;;;;;5124599;27;20026;-37
2023/10/14 00:56:32;;;;;;;1.80;0.93;;;15.30;99.90;;;;;;5023712;28;20049;-36
2023/10/14 00:59:04;;;;;;;2.33;1.00;;;15.30;99.90;;;;;;5095434;27;20030;-36
2023/10/14 01:01:31;;;;;;;2.70;1.02;;;15.20;99.90;;;;;;5046860;27;20459;-35
2023/10/14 01:07:15;;;;;;;2.75;0.82;;;15.00;99.90;;;;;;5044932;27;20047;-34
2023/10/14 01:12:16;;;;;;;3.20;0.82;;;14.80;99.90;;;;;;5042935;28;20492;-35
2023/10/14 01:14:46;;;;;;;3.13;0.70;;;14.80;99.90;;;;;;5109840;27;20023;-36
2023/10/14 01:17:21;;;;;;;3.25;0.93;;;14.80;99.90;;;;;;5042920;28;20096;-35
2023/10/14 01:19:50;;;;;;;2.17;1.00;;;14.80;99.90;;;;;;5105304;27;20079;-34
2023/10/14 01:22:15;;;;;;;5.60;1.27;;;14.70;99.90;;;;;;5042337;27;20033;-35
2023/10/14 01:24:41;;;;;;;3.30;1.42;;;14.60;99.90;;;;;;5094083;27;20025;-36
2023/10/14 01:27:09;;;;;;;3.55;1.20;;;14.50;99.90;;;;;;5055110;27;20593;-35
2023/10/14 01:29:41;;;;;;;4.05;0.90;;;14.40;99.90;;;;;;5081903;27;20014;-35
2023/10/14 01:37:56;;;;;;;2.10;0.90;;;14.30;99.90;;;;;;5023953;28;20033;-35
2023/10/14 01:42:56;;;;;;;4.05;1.10;;;14.30;99.90;;;;;;5047962;27;20093;-35
2023/10/14 01:45:39;;;;;;;7.60;1.35;;;14.30;99.90;;;;;;5093065;27;20029;-35
2023/10/14 01:50:44;;;;;;;4.40;1.27;;;14.20;99.90;;;;;;5096002;27;20350;-35
2023/10/14 01:53:11;;;;;;;2.97;1.27;;;14.10;99.90;;;;;;5098642;27;20027;-35
2023/10/14 01:55:42;;;;;;;5.15;1.40;;;14.10;99.90;;;;;;5098675;27;20060;-34
2023/10/14 01:58:17;;;;;;;5.00;1.30;;;14.00;99.90;;;;;;5132101;27;20030;-35
2023/10/14 02:00:46;;;;;;;6.50;1.40;;;14.00;99.90;;;;;;5103122;27;20104;-35
2023/10/14 02:03:21;;;;;;;2.97;1.15;;;14.00;99.90;;;;;;5127158;27;20038;-34
2023/10/14 02:05:47;;;;;;;4.75;1.20;;;14.00;99.90;;;;;;5106948;27;20189;-35
2023/10/14 02:08:16;;;;;;;3.05;1.30;;;14.00;99.90;;;;;;5119770;27;20458;-35
2023/10/14 02:10:46;;;;;;;6.75;1.33;;;14.00;99.90;;;;;;5118851;27;20017;-36
2023/10/14 02:13:16;;;;;;;5.43;1.38;;;14.00;99.90;;;;;;5112269;27;20526;-35
2023/10/14 02:15:47;;;;;;;8.25;1.58;;;13.90;99.90;;;;;;5125682;27;20052;-34
2023/10/14 02:18:15;;;;;;;5.03;1.42;;;13.90;99.90;;;;;;5105319;27;20073;-34
2023/10/14 02:20:58;;;;;;;4.80;1.40;;;14.00;99.90;;;;;;5134037;27;20023;-36
2023/10/14 02:23:26;;;;;;;2.90;1.33;;;13.90;99.90;;;;;;5104843;27;20047;-35
2023/10/14 02:25:56;;;;;;;3.28;1.30;;;13.90;99.90;;;;;;5134406;27;20030;-35
2023/10/14 02:28:22;;;;;;;3.15;1.30;;;13.90;99.90;;;;;;5095750;27;20019;-35
2023/10/14 02:30:51;;;;;;;7.55;1.10;;;13.90;99.90;;;;;;5138679;27;20017;-35
2023/10/14 02:33:18;;;;;;;2.92;1.25;;;13.90;99.90;;;;;;5087829;27;20045;-35
2023/10/14 02:35:44;;;;;;;4.53;1.17;;;13.90;99.90;;;;;;5138906;27;20122;-35
2023/10/14 02:38:10;;;;;;;3.55;1.45;;;13.80;99.90;;;;;;5087543;27;20113;-37
2023/10/14 02:40:37;;;;;;;5.00;1.60;;;13.80;99.90;;;;;;5147227;27;20109;-36
2023/10/14 02:43:04;;;;;;;3.40;1.13;;;13.70;99.90;;;;;;5105919;27;20021;-35
2023/10/14 02:45:38;;;;;;;4.05;1.10;;;13.70;99.90;;;;;;5042110;28;20025;-36
2023/10/14 02:48:11;;;;;;;4.18;1.20;;;13.70;99.90;;;;;;5107547;27;20462;-36
2023/10/14 02:50:37;;;;;;;2.50;1.08;;;13.60;99.90;;;;;;5041411;28;20518;-36
2023/10/14 02:53:06;;;;;;;3.70;1.08;;;13.60;99.90;;;;;;5069043;27;20109;-37
2023/10/14 02:58:29;;;;;;;2.80;0.93;;;13.50;99.90;;;;;;5096711;27;20032;-34
2023/10/14 03:00:59;;;;;;;4.90;1.20;;;13.50;99.90;;;;;;5041667;28;20067;-35
2023/10/14 03:03:24;;;;;;;2.85;1.17;;;13.50;99.90;;;;;;5107182;27;20026;-36
2023/10/14 03:05:53;;;;;;;3.33;1.23;;;13.40;99.90;;;;;;5039591;28;20031;-36
2023/10/14 03:08:22;;;;;;;2.35;1.00;;;13.40;99.90;;;;;;5099109;27;20083;-36
2023/10/14 03:10:59;;;;;;;3.22;1.10;;;13.30;99.90;;;;;;5046446;27;20410;-35
2023/10/14 03:13:25;;;;;;;4.63;1.23;;;13.30;99.90;;;;;;5096917;27;20026;-35
2023/10/14 03:15:54;;;;;;;4.95;1.45;;;13.20;99.90;;;;;;5050849;27;20029;-36
2023/10/14 03:18:30;;;;;;;5.07;1.20;;;13.20;99.90;;;;;;5047285;27;20035;-35
2023/10/14 03:23:25;;;;;;;4.00;1.27;;;13.10;99.90;;;;;;5107170;27;20037;-34
2023/10/14 03:26:20;;;;;;;2.97;1.15;;;13.00;99.90;;;;;;5120519;27;20114;-39
2023/10/14 03:28:46;;;;;;;5.68;1.45;;;13.00;99.90;;;;;;5100829;27;20520;-35
2023/10/14 03:31:16;;;;;;;4.85;0.95;;;13.00;99.90;;;;;;5128873;27;20041;-36
2023/10/14 03:33:43;;;;;;;3.83;1.08;;;12.90;99.90;;;;;;5124519;27;20033;-36
2023/10/14 03:36:15;;;;;;;4.45;0.95;;;12.90;99.90;;;;;;5067249;27;20057;-36
2023/10/14 03:38:42;;;;;;;7.45;1.58;;;12.80;99.90;;;;;;5070174;27;20479;-36
2023/10/14 03:41:21;;;;;;;2.97;1.23;;;12.70;99.90;;;;;;5074311;27;20172;-35
2023/10/14 03:46:30;;;;;;;5.47;1.25;;;12.60;99.90;;;;;;5071070;27;20056;-35
2023/10/14 03:48:56;;;;;;;;;;;12.60;99.90;;;;;;5066763;27;20039;-36
2023/10/14 03:51:25;;;;;;;4.43;1.30;;;12.50;99.90;;;;;;5080187;27;19909;-36
2023/10/14 03:53:54;;;;;;;5.20;1.48;;;12.40;99.90;;;;;;5097752;27;20022;-36
2023/10/14 03:56:31;;;;;;;5.20;1.23;;;12.40;99.90;;;;;;5096809;27;20122;-36
2023/10/14 03:59:00;;;;;;;5.05;1.38;;;12.40;99.90;;;;;;5133968;27;20067;-36
2023/10/14 04:04:18;;;;;;;4.45;1.48;;;12.30;99.90;;;;;;5134645;27;20584;-35
2023/10/14 04:09:51;;;;;;;4.10;1.25;;;12.20;99.90;;;;;;5126950;27;20045;-34
2023/10/14 04:17:40;;;;;;;4.65;1.40;;;12.20;99.90;;;;;;5125351;27;20107;-36
2023/10/14 04:22:38;;;;;;;7.32;1.85;;;12.10;99.90;;;;;;5117152;27;20035;-35
2023/10/14 04:30:32;;;;;;;6.45;1.10;;;12.10;99.90;;;;;;5121650;27;20029;-36
2023/10/14 04:35:31;;;;;;;6.25;1.35;;;12.00;99.90;;;;;;5123444;27;20041;-36
2023/10/14 04:37:58;;;;;;;4.50;1.15;;;12.00;99.90;;;;;;5110874;27;20054;-36
2023/10/14 04:45:51;;;;;;;3.47;1.10;;;11.90;99.90;;;;;;5127481;27;20087;-36
2023/10/14 04:48:17;;;;;;;3.58;1.27;;;11.90;99.90;;;;;;5109956;27;20221;-36
2023/10/14 04:50:46;;;;;;;4.20;1.20;;;11.90;99.90;;;;;;5133703;27;20026;-36
2023/10/14 04:53:15;;;;;;;4.50;1.30;;;11.80;99.90;;;;;;5057183;27;20124;-36
2023/10/14 04:55:43;;;;;;;3.65;1.30;;;11.80;99.90;;;;;;5050745;27;20451;-36
2023/10/14 04:58:12;;;;;;;3.30;1.30;;;11.80;99.90;;;;;;5101480;27;20017;-36
2023/10/14 05:00:43;;;;;;;4.40;1.30;;;11.80;99.90;;;;;;5050496;27;20025;-36
2023/10/14 05:03:13;;;;;;;4.10;1.17;;;11.80;99.90;;;;;;5101913;27;20065;-35
2023/10/14 05:06:14;;;;;;;3.63;1.05;;;11.70;99.90;;;;;;5049796;27;20033;-35
2023/10/14 05:08:51;;;;;;;5.47;1.20;;;11.70;99.90;;;;;;5086608;27;20075;-37
2023/10/14 05:11:18;;;;;;;5.90;1.23;;;11.70;99.90;;;;;;5138968;27;20363;-36
2023/10/14 05:13:46;;;;;;;3.75;0.90;;;11.70;99.90;;;;;;5091469;27;20137;-35
2023/10/14 05:16:21;;;;;;;3.33;1.00;;;11.60;99.90;;;;;;5139920;27;20036;-35
2023/10/14 05:19:01;;;;;;;4.35;1.38;;;11.60;99.90;;;;;;5088585;27;20147;-36
2023/10/14 05:21:42;;;;;;;4.07;0.80;;;11.60;99.90;;;;;;5141117;27;20029;-37
2023/10/14 05:24:09;;;;;;;5.25;1.05;;;11.60;99.90;;;;;;5083971;27;20026;-36
2023/10/14 05:26:48;;;;;;;3.88;1.30;;;11.50;99.90;;;;;;5139609;27;20037;-34
2023/10/14 05:29:18;;;;;;;4.90;1.00;;;11.50;99.90;;;;;;5078796;27;20034;-35
2023/10/14 05:31:47;;;;;;;4.45;1.27;;;11.50;99.90;;;;;;5140381;27;20107;-35
2023/10/14 05:34:14;;;;;;;4.60;1.17;;;11.50;99.90;;;;;;5088452;27;20054;-35
2023/10/14 05:36:40;;;;;;;5.15;0.98;;;11.50;99.90;;;;;;5140102;27;20410;-36
2023/10/14 05:39:11;;;;;;;4.80;1.00;;;11.50;99.90;;;;;;5096645;27;20021;-35
2023/10/14 05:41:48;;;;;;;4.47;1.00;;;11.50;99.90;;;;;;5042951;28;20029;-35
2023/10/14 05:44:14;;;;;;;4.85;1.27;;;11.40;99.90;;;;;;5097763;27;20017;-36
2023/10/14 05:46:43;;;;;;;5.35;1.30;;;11.40;99.90;;;;;;5041998;28;20037;-35
2023/10/14 05:49:08;;;;;;;5.63;1.10;;;11.40;99.90;;;;;;5108059;27;20037;-35
2023/10/14 05:51:35;;;;;;;4.60;1.10;;;11.40;99.90;;;;;;5043001;28;20029;-35
2023/10/14 05:54:04;;;;;;;5.10;1.10;;;11.40;99.90;;;;;;5107675;27;20410;-36
2023/10/14 05:56:29;;;;;;;4.13;1.00;;;11.40;99.90;;;;;;5043066;28;20025;-36
2023/10/14 05:58:55;;;;;;;3.95;1.10;;;11.40;99.90;;;;;;5097409;27;20049;-36
2023/10/14 06:01:20;;;;;;;4.65;1.10;;;11.40;99.90;;;;;;5051456;27;20081;-35
2023/10/14 06:03:47;;;;;;;4.22;1.23;;;11.40;99.90;;;;;;5084483;27;20029;-35
2023/10/14 06:06:16;;;;;;;2.28;0.93;;;11.40;99.90;;;;;;5064482;27;20037;-34
2023/10/14 06:08:49;;;;;;;2.95;0.80;;;11.40;99.90;;;;;;5072467;27;20022;-35
2023/10/14 06:11:16;;;;;;;4.13;1.35;;;11.40;99.90;;;;;;5071471;27;20033;-35
2023/10/14 06:13:42;;;;;;;4.78;1.33;;;11.30;99.90;;;;;;5064742;27;20027;-36
2023/10/14 06:16:10;;;;;;;6.05;1.38;;;11.30;99.90;;;;;;5082755;27;20021;-35
2023/10/14 06:18:36;;;;;;;2.85;1.25;;;11.30;99.90;;;;;;5053478;27;20033;-35
2023/10/14 06:21:05;;;;;;;4.45;1.40;;;11.30;99.90;;;;;;5094779;27;20025;-35
2023/10/14 06:23:31;;;;;;;2.88;1.02;;;11.30;99.90;;;;;;5048981;27;20473;-36
2023/10/14 06:25:57;;;;;;;3.63;1.00;;;11.30;99.90;;;;;;5100150;27;20040;-35
2023/10/14 06:28:23;;;;;;;7.32;1.10;;;11.30;99.90;;;;;;5047794;27;20577;-36
2023/10/14 06:30:49;;;;;;;3.47;1.13;;;11.30;99.90;;;;;;5097094;27;20032;-35
2023/10/14 06:33:14;;;;;;;6.82;1.27;;;11.30;99.90;;;;;;5041700;28;20032;-35
2023/10/14 06:35:43;;;;;;;3.10;0.82;;;11.40;99.90;;;;;;5107647;27;20061;-35
2023/10/14 06:38:10;;;;;;;4.28;1.48;;;11.40;99.90;;;;;;5041681;28;20562;-37
2023/10/14 06:40:37;;;;;;;8.10;1.40;;;11.30;99.90;;;;;;5107569;27;20079;-35
2023/10/14 06:43:07;;;;;;;4.43;1.10;;;11.40;99.90;;;;;;5040628;28;20026;-34
2023/10/14 06:45:33;;;;;;;2.58;1.17;;;11.40;99.90;;;;;;5099894;27;20386;-34
2023/10/14 06:47:59;;;;;;;4.95;1.17;;;11.40;99.90;;;;;;5048157;27;20060;-35
2023/10/14 06:50:25;;;;;;;4.25;1.45;;;11.40;99.90;;;;;;5086019;27;20019;-36
2023/10/14 06:52:53;;;;;;;5.72;1.08;;;11.40;99.90;;;;;;5079933;27;20505;-36
2023/10/14 06:55:22;;;;;;;3.25;1.15;;;11.40;99.90;;;;;;5112202;27;20871;-35
2023/10/14 06:57:53;;;;;;;3.97;1.73;;;11.50;99.90;;;;;;5102382;27;20048;-36
2023/10/14 07:00:31;;;;;;;2.28;1.08;;;11.50;99.90;;;;;;5056495;27;20025;-35
2023/10/14 07:03:00;;;;;;;4.88;1.40;;;11.50;99.90;;;;;;5072163;27;20093;-35
2023/10/14 07:05:29;;;;;;;5.10;1.90;;;11.50;99.90;;;;;;5064082;27;20034;-35
2023/10/14 07:07:59;;;;;;;7.07;1.70;;;11.50;99.90;;;;;;5080879;27;20029;-35
2023/10/14 07:10:28;;;;;;;7.90;1.50;;;11.60;99.90;;;;;;5055750;27;20383;-35
2023/10/14 07:12:57;;;;;;;6.03;1.73;;;11.60;99.90;;;;;;5089189;27;20518;-36
2023/10/14 07:15:27;;;;;;;6.47;1.70;;;11.60;99.90;;;;;;5047974;27;20099;-36
2023/10/14 07:17:59;;;;;;;3.85;1.40;;;11.60;99.90;;;;;;5096850;27;20021;-35
2023/10/14 07:20:29;;;;;;;5.50;1.40;;;11.70;99.90;;;;;;5048385;27;20030;-35
2023/10/14 07:22:58;;;;;;;6.85;1.42;;;11.70;99.90;;;;;;5100058;27;20036;-35
2023/10/14 07:25:33;;;;;;;2.08;1.05;;;11.70;99.90;;;;;;5047916;27;20028;-35
2023/10/14 07:28:00;;;;;;;6.35;1.52;;;11.80;99.90;;;;;;5100928;27;20522;-36
2023/10/14 07:30:27;;;;;;;6.30;1.65;;;11.80;99.90;;;;;;5047472;27;20202;-36
2023/10/14 07:32:54;;;;;;;5.82;1.52;;;11.80;99.90;;;;;;5095454;27;20017;-35
2023/10/14 07:35:21;;;;;;;5.00;1.45;;;11.90;99.90;;;;;;5041344;28;20491;-35
2023/10/14 07:37:51;;;;;;;7.70;2.28;;;11.90;99.90;;;;;;5106848;27;20687;-36
2023/10/14 07:40:24;;;;;;;5.22;1.73;;;11.90;99.90;;;;;;5039770;28;20216;-35
2023/10/14 07:42:52;;;;;;;6.28;0.95;;;11.90;99.90;;;;;;5107001;27;20054;-37
2023/10/14 07:45:18;;;;;;;5.70;1.73;;;11.90;99.90;;;;;;5040660;28;20017;-35
2023/10/14 07:47:48;;;;;;;9.35;2.30;;;12.00;99.90;;;;;;5104283;27;20485;-35
2023/10/14 07:50:13;;;;;;;5.75;1.50;;;12.00;99.90;;;;;;5021210;28;20029;-35
2023/10/14 07:52:39;;;;;;;5.82;1.70;;;12.10;99.90;;;;;;5082640;27;20019;-35
2023/10/14 07:55:05;;;;;;;6.53;1.35;;;12.10;99.90;;;;;;5046927;28;20074;-36
2023/10/14 07:57:31;;;;;;;7.18;1.88;;;12.10;99.90;;;;;;5086825;27;20144;-42
2023/10/14 08:00:09;;;;;;;3.28;1.00;;;12.20;99.90;;;;;;5072854;27;20439;-36
2023/10/14 08:02:35;;;;;;;6.18;1.35;;;12.20;99.90;;;;;;5074194;27;20021;-36
2023/10/14 08:05:05;;;;;;;8.20;1.55;;;12.20;99.90;;;;;;5121237;27;20031;-36
2023/10/14 08:07:30;;;;;;;5.43;1.60;;;12.20;99.90;;;;;;5127698;27;20032;-36
2023/10/14 08:09:56;;;;;;;6.65;1.50;;;12.30;99.90;;;;;;5111094;27;20031;-34
2023/10/14 08:12:22;;;;;;;6.10;1.67;;;12.30;99.90;;;;;;5141403;27;20034;-35
2023/10/14 08:14:47;;;;;;;7.60;2.25;;;12.30;99.90;;;;;;5096080;27;20064;-34
2023/10/14 08:17:13;;;;;;;5.70;1.60;;;12.40;99.90;;;;;;5144121;27;20494;-35
2023/10/14 08:19:39;;;;;;;5.82;1.60;;;12.40;99.90;;;;;;5093302;27;20097;-36
2023/10/14 08:22:14;;;;;;;7.28;1.90;;;12.40;99.90;;;;;;5148093;27;20037;-36
2023/10/14 08:24:39;;;;;;;7.40;2.35;;;12.50;99.90;;;;;;5102304;27;20480;-37
2023/10/14 08:27:05;;;;;;;9.85;2.50;;;12.50;99.90;;;;;;5046278;28;20962;-36
2023/10/14 08:29:32;;;;;;;9.32;2.08;;;12.50;99.90;;;;;;5112193;27;20081;-36
2023/10/14 08:31:58;;;;;;;3.95;1.40;;;12.60;99.90;;;;;;5046528;28;20044;-35
2023/10/14 08:34:24;;;;;;;6.50;2.15;;;12.70;99.90;;;;;;5113126;27;20030;-36
2023/10/14 08:36:49;;;;;;;5.88;1.83;;;12.70;99.90;;;;;;5046396;28;20128;-35
2023/10/14 08:39:15;;;;;;;7.78;1.70;;;12.70;99.90;;;;;;5101737;27;20470;-36
2023/10/14 08:41:47;;;;;;;9.07;2.88;;;12.80;99.90;;;;;;5056676;27;20086;-36
2023/10/14 08:44:18;;;;;;;8.57;1.70;;;12.80;99.90;;;;;;5092139;27;20025;-35
2023/10/14 08:46:44;;;;;;;7.90;2.30;;;12.90;99.90;;;;;;5062615;27;20414;-36
2023/10/14 08:49:12;;;;;;;6.10;1.58;;;12.90;99.90;;;;;;5082137;27;20015;-36
2023/10/14 08:51:39;;;;;;;7.30;1.63;;;13.00;99.90;;;;;;5075084;27;20068;-36
2023/10/14 08:54:10;;;;;;;6.07;1.95;;;13.00;99.90;;;;;;5084419;27;20021;-36
2023/10/14 08:56:36;;;;;;;4.63;1.40;;;13.00;99.90;;;;;;5114776;27;20121;-36
2023/10/14 08:59:03;;;;;;;5.32;1.83;;;13.10;99.90;;;;;;5135435;27;20125;-35
2023/10/14 09:01:31;;;;;;;7.32;1.75;;;13.10;99.90;;;;;;5102452;27;20075;-35
2023/10/14 09:03:59;;;;;;;6.45;1.27;;;13.20;99.90;;;;;;5142240;27;20098;-36
2023/10/14 09:06:25;;;;;;;6.93;1.60;;;13.20;99.90;;;;;;5089014;27;20071;-36
2023/10/14 09:08:51;;;;;;;6.53;2.00;;;13.30;99.90;;;;;;5140798;27;20825;-37
2023/10/14 09:11:33;;;;;;;10.45;2.25;;;13.30;99.90;;;;;;5088275;27;20041;-37
2023/10/14 09:14:10;;;;;;;6.97;1.90;;;13.30;99.90;;;;;;5140563;27;20102;-36
2023/10/14 09:16:36;;;;;;;10.70;2.33;;;13.40;99.90;;;;;;5089110;27;20035;-36
2023/10/14 09:19:05;;;;;;;7.22;1.73;;;13.40;99.90;;;;;;5141563;27;20534;-36
2023/10/14 09:21:31;;;;;;;10.52;2.22;;;13.40;99.90;;;;;;5097949;27;20025;-36
2023/10/14 09:24:07;;;;;;;7.72;1.85;;;13.40;99.90;;;;;;5042066;28;20468;-36
2023/10/14 09:26:38;;;;;;;9.43;1.80;;;13.40;99.90;;;;;;5083091;27;20030;-35
2023/10/14 09:29:04;;;;;;;7.75;1.95;;;13.50;99.90;;;;;;5147874;27;20377;-35
2023/10/14 09:31:37;;;;;;;10.98;2.22;;;13.60;99.90;;;;;;5080866;27;20561;-37
2023/10/14 09:34:02;;;;;;;8.07;2.35;;;13.70;99.90;;;;;;5147734;27;20481;-36
2023/10/14 09:36:33;;;;;;;5.95;1.50;;;13.80;99.90;;;;;;5081996;27;20052;-36
2023/10/14 09:39:07;;;;;;;10.20;2.20;;;13.90;99.90;;;;;;5147147;27;20837;-35
2023/10/14 09:41:35;;;;;;;9.98;2.30;;;13.90;99.90;;;;;;5082986;27;20481;-35
2023/10/14 09:44:03;;;;;;;6.43;1.73;;;13.90;99.90;;;;;;5022476;28;20084;-36
2023/10/14 09:46:31;;;;;;;11.68;1.90;;;14.00;99.90;;;;;;5089899;27;20043;-37
2023/10/14 09:48:58;;;;;;;9.93;3.17;;;14.00;99.90;;;;;;5051833;27;20025;-36
2023/10/14 09:51:24;;;;;;;6.25;1.60;;;14.00;99.90;;;;;;5084754;27;20075;-36
2023/10/14 09:53:51;;;;;;;10.32;2.20;;;14.10;99.90;;;;;;5113499;27;20023;-35
2023/10/14 09:56:18;;;;;;;10.90;1.95;;;14.10;99.90;;;;;;5115940;27;20036;-35
2023/10/14 09:58:44;;;;;;;8.57;1.90;;;14.10;99.90;;;;;;5113202;27;20431;-34
2023/10/14 10:01:15;;;;;;;8.45;2.10;;;14.10;99.90;;;;;;5127883;27;20489;-35
2023/10/14 10:03:44;;;;;;;8.93;1.92;;;14.10;99.90;;;;;;5104065;27;20031;-35
2023/10/14 10:06:16;;;;;;;11.38;2.17;;;14.10;99.90;;;;;;5135824;27;20457;-36
2023/10/14 10:09:25;;;;;;;9.88;2.30;;;14.00;99.90;;;;;;5097140;27;20042;-35
2023/10/14 10:11:52;;;;;;;5.97;1.60;;;14.00;99.90;;;;;;5115137;27;20021;-36
2023/10/14 10:14:23;;;;;;;8.20;1.73;;;14.10;99.90;;;;;;5114788;27;20478;-35
2023/10/14 10:16:56;;;;;;;7.28;1.65;;;14.10;99.90;;;;;;5122660;27;20479;-36
2023/10/14 10:19:22;;;;;;;8.85;1.88;;;14.00;99.90;;;;;;5109833;27;20064;-35
2023/10/14 10:22:12;;;;;;;9.70;1.90;;;14.10;99.90;;;;;;5131389;27;20067;-36
2023/10/14 10:24:41;;;;;;;5.40;1.48;;;14.10;99.90;;;;;;5114990;27;20026;-37
2023/10/14 10:27:11;;;;;;;3.00;1.10;;;14.00;99.90;;;;;;5123449;27;20079;-35
2023/10/14 10:29:49;;;;;;;2.67;0.80;;;14.00;99.90;;;;;;5105867;27;20027;-34
2023/10/14 10:32:23;;;;;;;2.78;1.02;;;13.80;99.90;;;;;;5126327;27;20019;-36
2023/10/14 10:35:13;;;;;;;3.45;0.90;;;13.70;99.90;;;;;;5107444;27;20027;-37
2023/10/14 10:37:56;;;;;;;3.55;1.15;;;13.60;99.90;;;;;;5117190;27;20057;-34
2023/10/14 10:40:25;;;;;;;2.25;0.82;;;13.60;99.90;;;;;;5122949;27;20019;-36
2023/10/14 10:43:06;;;;;;;2.53;0.93;;;13.50;99.90;;;;;;5114608;27;20021;-36
2023/10/14 10:45:42;;;;;;;5.00;1.17;;;13.50;99.90;;;;;;5123806;27;20448;-36
2023/10/14 10:48:14;;;;;;;4.95;1.40;;;13.40;99.90;;;;;;5110164;27;20033;-36
2023/10/14 10:50:41;;;;;;;7.35;1.60;;;13.50;99.90;;;;;;5122130;27;20026;-37
2023/10/14 10:53:10;;;;;;;5.22;1.40;;;13.50;99.90;;;;;;5132398;27;20036;-36
2023/10/14 10:55:51;;;;;;;9.73;2.00;;;13.50;99.90;;;;;;5145574;27;20023;-36
2023/10/14 10:58:20;;;;;;;7.28;1.70;;;13.70;99.90;;;;;;5110153;27;20077;-36
2023/10/14 11:00:47;;;;;;;6.63;1.73;;;13.80;99.90;;;;;;5077979;27;20547;-36
2023/10/14 11:03:14;;;;;;;8.18;2.05;;;13.90;99.90;;;;;;5057624;27;20559;-37
2023/10/14 11:05:41;;;;;;;6.32;1.65;;;14.00;99.90;;;;;;5089809;27;20068;-35
2023/10/14 11:08:08;;;;;;;9.88;2.13;;;14.00;99.90;;;;;;5048703;27;20029;-38
2023/10/14 11:10:39;;;;;;;6.43;1.60;;;13.90;99.90;;;;;;5099589;27;20684;-37
2023/10/14 11:13:07;;;;;;;11.00;2.05;;;13.80;99.90;;;;;;5048032;27;20434;-36
2023/10/14 11:15:34;;;;;;;7.85;1.70;;;13.70;99.90;;;;;;5100526;27;20484;-36
2023/10/14 11:18:01;;;;;;;6.75;1.80;;;13.60;99.90;;;;;;5044582;27;20033;-36
2023/10/14 11:20:31;;;;;;;8.43;1.75;;;13.50;99.90;;;;;;5101527;27;20037;-35
2023/10/14 11:22:58;;;;;;;7.70;1.83;;;13.50;99.90;;;;;;5041967;28;20036;-36
2023/10/14 11:25:24;;;;;;;5.93;1.67;;;13.50;99.90;;;;;;5105284;27;20028;-36
2023/10/14 11:27:54;;;;;;;7.30;1.55;;;13.60;99.90;;;;;;5041042;28;20043;-36
2023/10/14 11:30:21;;;;;;;7.90;1.58;;;13.60;99.90;;;;;;5106116;27;20235;-37
2023/10/14 11:32:51;;;;;;;4.53;1.20;;;13.60;99.90;;;;;;5041179;27;20112;-35
2023/10/14 11:35:22;;;;;;;3.38;1.10;;;13.60;99.90;;;;;;5101745;27;20571;-36
2023/10/14 11:38:00;;;;;;;3.67;1.10;;;13.50;99.90;;;;;;5020553;28;20044;-34
2023/10/14 11:40:52;;;;;;;5.22;1.17;;;13.50;99.90;;;;;;5097063;27;20034;-35
2023/10/14 11:43:21;;;;;;;5.60;1.20;;;13.30;99.90;;;;;;5020926;28;20044;-35
2023/10/14 11:45:51;;;;;;;6.07;1.33;;;13.10;99.90;;;;;;5103029;27;20058;-35
2023/10/14 11:48:27;;;;;;;5.90;1.48;;;13.00;99.90;;;;;;5040895;28;20025;-36
2023/10/14 11:50:55;;;;;;;5.00;1.88;;;12.90;99.90;;;;;;5106110;27;20054;-35
2023/10/14 11:53:29;;;;;;;5.22;1.33;;;12.90;99.90;;;;;;5044428;27;20018;-36
2023/10/14 11:55:58;;;;;;;7.38;1.73;;;12.90;99.90;;;;;;5087047;27;20037;-37
2023/10/14 11:58:28;;;;;;;5.75;1.50;;;13.00;99.90;;;;;;5141674;27;20054;-36
2023/10/14 12:00:55;;;;;;;5.05;1.42;;;13.20;99.90;;;;;;5095113;27;20479;-36
2023/10/14 12:03:20;;;;;;;6.35;1.50;;;13.40;99.90;;;;;;5131685;27;20041;-36
2023/10/14 12:05:46;;;;;;;6.65;1.73;;;13.50;99.90;;;;;;5106898;27;20021;-36
2023/10/14 12:08:11;;;;;;;4.53;1.40;;;13.70;99.90;;;;;;5117059;27;20125;-36
2023/10/14 12:10:37;;;;;;;5.80;1.40;;;13.70;99.90;;;;;;5121611;27;20034;-37
2023/10/14 12:13:03;;;;;;;6.05;1.90;;;13.70;99.90;;;;;;5102134;27;20552;-36
2023/10/14 12:15:35;;;;;;;5.78;1.88;;;13.80;99.90;;;;;;5134869;27;20101;-36
2023/10/14 12:18:01;;;;;;;9.25;2.08;;;13.80;99.90;;;;;;5094596;27;20026;-36
2023/10/14 12:20:29;;;;;;;9.93;1.92;;;13.90;99.90;;;;;;5130127;27;20069;-36
2023/10/14 12:22:54;;;;;;;6.28;1.60;;;14.00;99.90;;;;;;5099509;27;20053;-37
2023/10/14 12:25:20;;;;;;;7.88;1.50;;;13.90;99.90;;;;;;5047553;27;20110;-36
2023/10/14 12:27:48;;;;;;;6.47;1.83;;;13.70;99.90;;;;;;5098243;27;20556;-37
2023/10/14 12:31:00;;;;;;;7.25;1.38;;;13.40;99.90;;;;;;5039992;28;20032;-35
2023/10/14 12:33:04;;;;;;;7.10;1.55;;;13.10;99.90;;;;;;5027505;28;20032;-36
2023/10/14 12:35:32;;;;;;;7.38;1.50;;;13.00;99.90;;;;;;5040635;27;20044;-35
2023/10/14 12:37:59;;;;;;;10.27;2.10;;;13.00;99.90;;;;;;5103005;27;20077;-36
2023/10/14 12:40:29;;;;;;;9.00;2.13;;;12.90;99.90;;;;;;5044103;28;20493;-36
2023/10/14 12:43:02;;;;;;;6.82;1.63;;;13.00;99.90;;;;;;5109762;27;20045;-36
2023/10/14 12:45:28;;;;;;;7.90;1.70;;;13.10;99.90;;;;;;5043929;28;20472;-36
2023/10/14 12:48:01;;;;;;;3.72;1.20;;;13.30;99.90;;;;;;5109437;27;20034;-35
2023/10/14 12:50:26;;;;;;;7.35;1.52;;;13.40;99.90;;;;;;5043902;28;20033;-35
2023/10/14 12:52:58;;;;;;;6.07;1.67;;;13.60;99.90;;;;;;5106262;27;20030;-35
2023/10/14 12:55:25;;;;;;;6.63;1.80;;;13.70;99.90;;;;;;5023086;28;20025;-37
2023/10/14 12:57:51;;;;;;;8.38;2.13;;;13.80;99.90;;;;;;5091036;27;20552;-35
2023/10/14 13:00:39;;;;;;;4.50;1.27;;;13.80;99.90;;;;;;5054813;27;20081;-36
2023/10/14 13:03:09;;;;;;;4.70;1.50;;;13.90;99.90;;;;;;5097069;27;20039;-36
2023/10/14 13:05:38;;;;;;;6.97;1.67;;;13.90;99.90;;;;;;5050365;27;20128;-38
2023/10/14 13:08:04;;;;;;;8.50;1.70;;;14.00;99.90;;;;;;5070192;27;20124;-39
2023/10/14 13:10:32;;;;;;;4.32;1.30;;;14.10;99.90;;;;;;5130816;27;20049;-36
2023/10/14 13:13:00;;;;;;;7.43;1.55;;;14.20;99.90;;;;;;5112402;27;20075;-36
2023/10/14 13:15:34;;;;;;;8.57;1.67;;;14.20;99.90;;;;;;5121071;27;20065;-36
2023/10/14 13:18:11;;;;;;;6.32;1.85;;;14.30;99.90;;;;;;5117419;27;20013;-35
2023/10/14 13:20:38;;;;;;;3.33;1.25;;;14.30;99.90;;;;;;5121099;27;20054;-35
2023/10/14 13:23:09;;;;;;;5.43;1.48;;;14.20;99.90;;;;;;5122444;27;20063;-36
2023/10/14 13:25:41;;;;;;;5.32;1.27;;;14.10;99.90;;;;;;5110924;27;20540;-37
2023/10/14 13:28:08;;;;;;;6.45;1.40;;;13.90;99.90;;;;;;5127169;27;20038;-36
2023/10/14 13:30:39;;;;;;;6.38;1.92;;;13.60;99.90;;;;;;5102552;27;20052;-36
2023/10/14 13:33:08;;;;;;;7.28;1.60;;;13.00;99.90;;;;;;5137023;27;20823;-36
2023/10/14 13:35:33;;;;;;;6.00;1.50;;;12.50;99.90;;;;;;5095219;27;20141;-34
2023/10/14 13:38:00;;;;;;;8.57;1.20;;;12.20;99.90;;;;;;5139708;27;20177;-35
2023/10/14 13:40:26;;;;;;;4.47;1.67;;;12.10;99.90;;;;;;5088494;27;20573;-36
2023/10/14 13:42:53;;;;;;;9.82;2.13;;;12.00;99.90;;;;;;5142323;27;20155;-35
2023/10/14 13:45:22;;;;;;;3.20;1.30;;;11.80;99.90;;;;;;5096753;27;20032;-35
2023/10/14 13:47:48;;;;;;;4.40;1.27;;;11.80;99.90;;;;;;5043260;28;20151;-36
2023/10/14 13:50:22;;;;;;;4.93;1.10;;;11.80;99.90;;;;;;5107417;27;20021;-35
2023/10/14 13:52:51;;;;;;;3.38;1.13;;;11.90;99.90;;;;;;5042900;28;20029;-36